sensor_id;sensor_type;location;lat;lon;timestamp;temperature;humidity
802;DHT22;383;48.766;9.270;2023-09-07T00:00:03;16.70;92.00
802;DHT22;383;48.766;9.270;2023-09-07T00:02:31;16.70;92.00
802;DHT22;383;48.766;9.270;2023-09-07T00:04:59;16.70;91.80
802;DHT22;383;48.766;9.270;2023-09-07T00:07:26;16.70;92.00
802;DHT22;383;48.766;9.270;2023-09-07T00:09:52;16.60;92.10
802;DHT22;383;48.766;9.270;2023-09-07T00:12:20;16.60;92.10
802;DHT22;383;48.766;9.270;2023-09-07T00:14:47;16.60;92.30
802;DHT22;383;48.766;9.270;2023-09-07T00:17:13;16.60;92.40
802;DHT22;383;48.766;9.270;2023-09-07T00:19:40;16.50;92.70
802;DHT22;383;48.766;9.270;2023-09-07T00:22:08;16.50;92.60
802;DHT22;383;48.766;9.270;2023-09-07T00:24:35;16.40;92.70
802;DHT22;383;48.766;9.270;2023-09-07T00:27:02;16.40;92.90
802;DHT22;383;48.766;9.270;2023-09-07T00:29:31;16.30;93.30
802;DHT22;383;48.766;9.270;2023-09-07T00:31:57;16.40;92.90
802;DHT22;383;48.766;9.270;2023-09-07T00:34:24;16.30;93.20
802;DHT22;383;48.766;9.270;2023-09-07T00:36:51;16.30;93.20
802;DHT22;383;48.766;9.270;2023-09-07T00:39:19;16.30;93.30
802;DHT22;383;48.766;9.270;2023-09-07T00:41:45;16.30;93.30
802;DHT22;383;48.766;9.270;2023-09-07T00:44:12;16.30;93.20
802;DHT22;383;48.766;9.270;2023-09-07T00:46:39;16.30;93.30
802;DHT22;383;48.766;9.270;2023-09-07T00:49:06;16.20;93.50
802;DHT22;383;48.766;9.270;2023-09-07T00:51:33;16.20;93.60
802;DHT22;383;48.766;9.270;2023-09-07T00:53:59;16.20;93.60
802;DHT22;383;48.766;9.270;2023-09-07T00:56:28;16.10;93.80
802;DHT22;383;48.766;9.270;2023-09-07T00:58:55;16.10;93.90
802;DHT22;383;48.766;9.270;2023-09-07T01:01:25;16.10;93.90
802;DHT22;383;48.766;9.270;2023-09-07T01:03:52;16.10;94.00
802;DHT22;383;48.766;9.270;2023-09-07T01:06:22;16.10;93.90
802;DHT22;383;48.766;9.270;2023-09-07T01:08:51;16.00;94.00
802;DHT22;383;48.766;9.270;2023-09-07T01:11:22;16.00;94.50
802;DHT22;383;48.766;9.270;2023-09-07T01:13:50;16.00;94.50
802;DHT22;383;48.766;9.270;2023-09-07T01:16:19;16.00;94.60
802;DHT22;383;48.766;9.270;2023-09-07T01:18:47;16.00;94.70
802;DHT22;383;48.766;9.270;2023-09-07T01:21:14;15.90;94.80
802;DHT22;383;48.766;9.270;2023-09-07T01:23:43;15.90;94.70
802;DHT22;383;48.766;9.270;2023-09-07T01:26:11;15.90;94.90
802;DHT22;383;48.766;9.270;2023-09-07T01:28:38;15.90;95.10
802;DHT22;383;48.766;9.270;2023-09-07T01:31:05;15.90;95.00
802;DHT22;383;48.766;9.270;2023-09-07T01:33:31;15.80;95.00
802;DHT22;383;48.766;9.270;2023-09-07T01:35:58;15.80;95.10
802;DHT22;383;48.766;9.270;2023-09-07T01:38:25;15.80;95.10
802;DHT22;383;48.766;9.270;2023-09-07T01:40:53;15.80;95.00
802;DHT22;383;48.766;9.270;2023-09-07T01:43:20;15.80;95.10
802;DHT22;383;48.766;9.270;2023-09-07T01:45:47;15.80;95.20
802;DHT22;383;48.766;9.270;2023-09-07T01:48:14;15.70;95.20
802;DHT22;383;48.766;9.270;2023-09-07T01:50:40;15.70;95.20
802;DHT22;383;48.766;9.270;2023-09-07T01:53:07;15.70;95.60
802;DHT22;383;48.766;9.270;2023-09-07T01:55:34;15.70;95.60
802;DHT22;383;48.766;9.270;2023-09-07T01:58:02;15.60;95.60
802;DHT22;383;48.766;9.270;2023-09-07T02:00:29;15.60;96.10
802;DHT22;383;48.766;9.270;2023-09-07T02:02:56;15.60;96.10
802;DHT22;383;48.766;9.270;2023-09-07T02:05:22;15.60;96.20
802;DHT22;383;48.766;9.270;2023-09-07T02:07:49;15.60;96.00
802;DHT22;383;48.766;9.270;2023-09-07T02:10:16;15.60;96.20
802;DHT22;383;48.766;9.270;2023-09-07T02:12:45;15.60;96.10
802;DHT22;383;48.766;9.270;2023-09-07T02:15:13;15.60;96.10
802;DHT22;383;48.766;9.270;2023-09-07T02:17:40;15.60;96.00
802;DHT22;383;48.766;9.270;2023-09-07T02:20:11;15.50;96.00
802;DHT22;383;48.766;9.270;2023-09-07T02:22:38;15.50;96.00
802;DHT22;383;48.766;9.270;2023-09-07T02:25:05;15.50;95.90
802;DHT22;383;48.766;9.270;2023-09-07T02:27:32;15.50;95.90
802;DHT22;383;48.766;9.270;2023-09-07T02:29:59;15.50;96.10
802;DHT22;383;48.766;9.270;2023-09-07T02:32:27;15.50;96.10
802;DHT22;383;48.766;9.270;2023-09-07T02:34:53;15.40;96.20
802;DHT22;383;48.766;9.270;2023-09-07T02:37:20;15.40;96.30
802;DHT22;383;48.766;9.270;2023-09-07T02:39:47;15.40;96.20
802;DHT22;383;48.766;9.270;2023-09-07T02:42:13;15.40;96.30
802;DHT22;383;48.766;9.270;2023-09-07T02:44:40;15.30;96.50
802;DHT22;383;48.766;9.270;2023-09-07T02:47:07;15.30;96.70
802;DHT22;383;48.766;9.270;2023-09-07T02:49:35;15.30;97.00
802;DHT22;383;48.766;9.270;2023-09-07T02:52:02;15.30;96.80
802;DHT22;383;48.766;9.270;2023-09-07T02:54:28;15.20;96.90
802;DHT22;383;48.766;9.270;2023-09-07T02:56:55;15.20;97.00
802;DHT22;383;48.766;9.270;2023-09-07T02:59:22;15.20;97.00
802;DHT22;383;48.766;9.270;2023-09-07T03:01:48;15.20;96.90
802;DHT22;383;48.766;9.270;2023-09-07T03:04:15;15.20;97.00
802;DHT22;383;48.766;9.270;2023-09-07T03:06:43;15.20;96.90
802;DHT22;383;48.766;9.270;2023-09-07T03:09:10;15.20;96.80
802;DHT22;383;48.766;9.270;2023-09-07T03:11:37;15.20;96.80
802;DHT22;383;48.766;9.270;2023-09-07T03:14:02;15.20;96.80
802;DHT22;383;48.766;9.270;2023-09-07T03:16:29;15.20;96.60
802;DHT22;383;48.766;9.270;2023-09-07T03:18:56;15.10;96.80
802;DHT22;383;48.766;9.270;2023-09-07T03:21:23;15.10;96.90
802;DHT22;383;48.766;9.270;2023-09-07T03:23:55;15.10;96.90
802;DHT22;383;48.766;9.270;2023-09-07T03:26:22;15.10;97.00
802;DHT22;383;48.766;9.270;2023-09-07T03:28:49;15.20;96.50
802;DHT22;383;48.766;9.270;2023-09-07T03:31:15;15.10;96.70
802;DHT22;383;48.766;9.270;2023-09-07T03:33:42;15.00;97.00
802;DHT22;383;48.766;9.270;2023-09-07T03:36:09;15.10;97.00
802;DHT22;383;48.766;9.270;2023-09-07T03:38:36;15.00;96.90
802;DHT22;383;48.766;9.270;2023-09-07T03:41:04;14.90;97.40
802;DHT22;383;48.766;9.270;2023-09-07T03:43:30;14.90;97.40
802;DHT22;383;48.766;9.270;2023-09-07T03:45:57;14.90;97.50
802;DHT22;383;48.766;9.270;2023-09-07T03:48:24;14.80;97.50
802;DHT22;383;48.766;9.270;2023-09-07T03:50:50;14.80;97.60
802;DHT22;383;48.766;9.270;2023-09-07T03:53:17;14.80;97.60
802;DHT22;383;48.766;9.270;2023-09-07T03:55:45;14.80;97.70
802;DHT22;383;48.766;9.270;2023-09-07T03:58:13;14.80;97.60
802;DHT22;383;48.766;9.270;2023-09-07T04:00:40;14.70;97.60
802;DHT22;383;48.766;9.270;2023-09-07T04:03:07;14.80;97.20
802;DHT22;383;48.766;9.270;2023-09-07T04:05:33;14.80;97.40
802;DHT22;383;48.766;9.270;2023-09-07T04:08:03;14.80;97.20
802;DHT22;383;48.766;9.270;2023-09-07T04:10:30;14.70;97.10
802;DHT22;383;48.766;9.270;2023-09-07T04:12:56;14.70;97.40
802;DHT22;383;48.766;9.270;2023-09-07T04:15:24;14.60;97.50
802;DHT22;383;48.766;9.270;2023-09-07T04:17:52;14.60;97.70
802;DHT22;383;48.766;9.270;2023-09-07T04:20:20;14.60;97.70
802;DHT22;383;48.766;9.270;2023-09-07T04:22:47;14.60;97.80
802;DHT22;383;48.766;9.270;2023-09-07T04:25:13;14.60;97.80
802;DHT22;383;48.766;9.270;2023-09-07T04:27:40;14.50;98.00
802;DHT22;383;48.766;9.270;2023-09-07T04:30:08;14.50;98.20
802;DHT22;383;48.766;9.270;2023-09-07T04:32:36;14.50;98.20
802;DHT22;383;48.766;9.270;2023-09-07T04:35:03;14.50;98.50
802;DHT22;383;48.766;9.270;2023-09-07T04:37:30;14.50;98.80
802;DHT22;383;48.766;9.270;2023-09-07T04:39:56;14.50;98.80
802;DHT22;383;48.766;9.270;2023-09-07T04:42:23;14.50;98.80
802;DHT22;383;48.766;9.270;2023-09-07T04:44:50;14.50;98.50
802;DHT22;383;48.766;9.270;2023-09-07T04:47:16;14.50;98.40
802;DHT22;383;48.766;9.270;2023-09-07T04:49:48;14.40;98.40
802;DHT22;383;48.766;9.270;2023-09-07T04:52:15;14.40;98.60
802;DHT22;383;48.766;9.270;2023-09-07T04:54:42;14.40;98.70
802;DHT22;383;48.766;9.270;2023-09-07T04:57:09;14.40;98.40
802;DHT22;383;48.766;9.270;2023-09-07T04:59:36;14.40;98.30
802;DHT22;383;48.766;9.270;2023-09-07T05:02:03;14.40;98.30
802;DHT22;383;48.766;9.270;2023-09-07T05:04:30;14.40;98.40
802;DHT22;383;48.766;9.270;2023-09-07T05:06:58;14.40;98.50
802;DHT22;383;48.766;9.270;2023-09-07T05:09:25;14.40;98.70
802;DHT22;383;48.766;9.270;2023-09-07T05:11:51;14.40;98.60
802;DHT22;383;48.766;9.270;2023-09-07T05:14:18;14.30;98.50
802;DHT22;383;48.766;9.270;2023-09-07T05:16:45;14.30;98.50
802;DHT22;383;48.766;9.270;2023-09-07T05:19:12;14.30;98.40
802;DHT22;383;48.766;9.270;2023-09-07T05:21:39;14.40;98.40
802;DHT22;383;48.766;9.270;2023-09-07T05:24:08;14.30;98.60
802;DHT22;383;48.766;9.270;2023-09-07T05:26:34;14.30;98.50
802;DHT22;383;48.766;9.270;2023-09-07T05:29:01;14.40;98.60
802;DHT22;383;48.766;9.270;2023-09-07T05:31:28;14.30;98.60
802;DHT22;383;48.766;9.270;2023-09-07T05:33:54;14.40;98.90
802;DHT22;383;48.766;9.270;2023-09-07T05:36:21;14.40;99.00
802;DHT22;383;48.766;9.270;2023-09-07T05:38:48;14.40;99.00
802;DHT22;383;48.766;9.270;2023-09-07T05:41:16;14.40;98.80
802;DHT22;383;48.766;9.270;2023-09-07T05:43:42;14.50;98.40
802;DHT22;383;48.766;9.270;2023-09-07T05:46:09;14.50;98.30
802;DHT22;383;48.766;9.270;2023-09-07T05:48:36;14.50;98.20
802;DHT22;383;48.766;9.270;2023-09-07T05:51:03;14.50;98.20
802;DHT22;383;48.766;9.270;2023-09-07T05:53:29;14.50;98.50
802;DHT22;383;48.766;9.270;2023-09-07T05:55:56;14.60;98.30
802;DHT22;383;48.766;9.270;2023-09-07T05:58:24;14.50;98.60
802;DHT22;383;48.766;9.270;2023-09-07T06:00:51;14.60;98.80
802;DHT22;383;48.766;9.270;2023-09-07T06:03:18;14.60;98.90
802;DHT22;383;48.766;9.270;2023-09-07T06:05:44;14.60;98.90
802;DHT22;383;48.766;9.270;2023-09-07T06:08:11;14.70;98.70
802;DHT22;383;48.766;9.270;2023-09-07T06:10:38;14.70;98.70
802;DHT22;383;48.766;9.270;2023-09-07T06:13:05;14.70;98.80
802;DHT22;383;48.766;9.270;2023-09-07T06:15:34;14.80;98.90
802;DHT22;383;48.766;9.270;2023-09-07T06:18:00;14.80;99.00
802;DHT22;383;48.766;9.270;2023-09-07T06:20:28;14.80;99.30
802;DHT22;383;48.766;9.270;2023-09-07T06:22:55;14.90;99.50
802;DHT22;383;48.766;9.270;2023-09-07T06:25:22;15.00;99.50
802;DHT22;383;48.766;9.270;2023-09-07T06:27:48;15.00;99.60
802;DHT22;383;48.766;9.270;2023-09-07T06:30:15;15.00;99.80
802;DHT22;383;48.766;9.270;2023-09-07T06:32:43;15.10;99.90
802;DHT22;383;48.766;9.270;2023-09-07T06:35:10;15.10;99.90
802;DHT22;383;48.766;9.270;2023-09-07T06:37:37;15.30;99.90
802;DHT22;383;48.766;9.270;2023-09-07T06:40:07;15.40;99.80
802;DHT22;383;48.766;9.270;2023-09-07T06:42:35;15.40;99.90
802;DHT22;383;48.766;9.270;2023-09-07T06:45:02;15.60;99.90
802;DHT22;383;48.766;9.270;2023-09-07T06:47:29;15.70;99.60
802;DHT22;383;48.766;9.270;2023-09-07T06:49:57;15.80;99.80
802;DHT22;383;48.766;9.270;2023-09-07T06:52:24;15.80;99.70
802;DHT22;383;48.766;9.270;2023-09-07T06:54:52;16.00;99.40
802;DHT22;383;48.766;9.270;2023-09-07T06:57:19;16.10;99.30
802;DHT22;383;48.766;9.270;2023-09-07T06:59:47;16.10;99.30
802;DHT22;383;48.766;9.270;2023-09-07T07:02:14;16.20;99.10
802;DHT22;383;48.766;9.270;2023-09-07T07:04:40;16.30;98.80
802;DHT22;383;48.766;9.270;2023-09-07T07:07:10;16.40;98.20
802;DHT22;383;48.766;9.270;2023-09-07T07:09:37;16.50;98.20
802;DHT22;383;48.766;9.270;2023-09-07T07:12:04;16.60;98.00
802;DHT22;383;48.766;9.270;2023-09-07T07:14:31;16.70;97.80
802;DHT22;383;48.766;9.270;2023-09-07T07:16:58;16.80;97.10
802;DHT22;383;48.766;9.270;2023-09-07T07:19:24;17.00;97.00
802;DHT22;383;48.766;9.270;2023-09-07T07:21:51;17.10;96.90
802;DHT22;383;48.766;9.270;2023-09-07T07:24:19;17.20;96.60
802;DHT22;383;48.766;9.270;2023-09-07T07:26:46;17.30;96.00
802;DHT22;383;48.766;9.270;2023-09-07T07:29:13;17.40;95.70
802;DHT22;383;48.766;9.270;2023-09-07T07:31:40;17.50;95.40
802;DHT22;383;48.766;9.270;2023-09-07T07:34:06;17.70;95.20
802;DHT22;383;48.766;9.270;2023-09-07T07:36:33;17.80;94.60
802;DHT22;383;48.766;9.270;2023-09-07T07:39:00;18.00;94.10
802;DHT22;383;48.766;9.270;2023-09-07T07:41:28;18.10;93.90
802;DHT22;383;48.766;9.270;2023-09-07T07:43:55;18.20;93.50
802;DHT22;383;48.766;9.270;2023-09-07T07:46:22;18.40;92.90
802;DHT22;383;48.766;9.270;2023-09-07T07:48:48;18.50;91.00
802;DHT22;383;48.766;9.270;2023-09-07T07:51:15;18.70;91.00
802;DHT22;383;48.766;9.270;2023-09-07T07:53:42;18.80;91.00
802;DHT22;383;48.766;9.270;2023-09-07T07:56:14;18.90;90.60
802;DHT22;383;48.766;9.270;2023-09-07T07:58:42;19.00;88.80
802;DHT22;383;48.766;9.270;2023-09-07T08:01:14;19.20;89.30
802;DHT22;383;48.766;9.270;2023-09-07T08:03:41;19.30;88.90
802;DHT22;383;48.766;9.270;2023-09-07T08:06:07;19.50;88.00
802;DHT22;383;48.766;9.270;2023-09-07T08:08:34;19.60;87.70
802;DHT22;383;48.766;9.270;2023-09-07T08:11:01;19.80;87.10
802;DHT22;383;48.766;9.270;2023-09-07T08:13:31;20.00;86.70
802;DHT22;383;48.766;9.270;2023-09-07T08:15:59;20.10;85.30
802;DHT22;383;48.766;9.270;2023-09-07T08:18:26;20.30;85.10
802;DHT22;383;48.766;9.270;2023-09-07T08:20:53;20.40;84.40
802;DHT22;383;48.766;9.270;2023-09-07T08:23:20;20.60;83.60
802;DHT22;383;48.766;9.270;2023-09-07T08:25:47;20.70;83.60
802;DHT22;383;48.766;9.270;2023-09-07T08:28:14;20.90;81.60
802;DHT22;383;48.766;9.270;2023-09-07T08:30:43;21.00;81.60
802;DHT22;383;48.766;9.270;2023-09-07T08:33:11;21.10;81.90
802;DHT22;383;48.766;9.270;2023-09-07T08:35:38;21.30;81.40
802;DHT22;383;48.766;9.270;2023-09-07T08:38:09;21.40;79.80
802;DHT22;383;48.766;9.270;2023-09-07T08:40:36;21.60;78.60
802;DHT22;383;48.766;9.270;2023-09-07T08:43:08;21.70;78.60
802;DHT22;383;48.766;9.270;2023-09-07T08:45:41;21.90;78.30
802;DHT22;383;48.766;9.270;2023-09-07T08:48:08;22.10;77.40
802;DHT22;383;48.766;9.270;2023-09-07T08:50:38;22.20;77.50
802;DHT22;383;48.766;9.270;2023-09-07T08:53:06;22.40;76.90
802;DHT22;383;48.766;9.270;2023-09-07T08:55:33;22.50;75.20
802;DHT22;383;48.766;9.270;2023-09-07T08:58:00;22.60;76.00
802;DHT22;383;48.766;9.270;2023-09-07T09:00:27;22.80;76.50
802;DHT22;383;48.766;9.270;2023-09-07T09:02:56;22.80;74.40
802;DHT22;383;48.766;9.270;2023-09-07T09:05:23;22.90;75.20
802;DHT22;383;48.766;9.270;2023-09-07T09:08:00;23.10;74.50
802;DHT22;383;48.766;9.270;2023-09-07T09:10:28;23.30;74.50
802;DHT22;383;48.766;9.270;2023-09-07T09:12:54;23.40;74.20
802;DHT22;383;48.766;9.270;2023-09-07T09:15:22;23.50;73.30
802;DHT22;383;48.766;9.270;2023-09-07T09:17:49;23.70;72.80
802;DHT22;383;48.766;9.270;2023-09-07T09:20:22;23.80;73.00
802;DHT22;383;48.766;9.270;2023-09-07T09:22:54;23.90;72.10
802;DHT22;383;48.766;9.270;2023-09-07T09:25:21;24.10;71.70
802;DHT22;383;48.766;9.270;2023-09-07T09:27:48;24.10;70.30
802;DHT22;383;48.766;9.270;2023-09-07T09:30:15;24.20;70.70
802;DHT22;383;48.766;9.270;2023-09-07T09:32:42;24.20;70.30
802;DHT22;383;48.766;9.270;2023-09-07T09:35:09;24.40;71.20
802;DHT22;383;48.766;9.270;2023-09-07T09:37:46;24.50;71.70
802;DHT22;383;48.766;9.270;2023-09-07T09:40:15;24.70;70.80
802;DHT22;383;48.766;9.270;2023-09-07T09:42:43;24.80;68.00
802;DHT22;383;48.766;9.270;2023-09-07T09:45:11;24.80;69.30
802;DHT22;383;48.766;9.270;2023-09-07T09:47:40;24.90;69.10
802;DHT22;383;48.766;9.270;2023-09-07T09:50:08;25.00;68.90
802;DHT22;383;48.766;9.270;2023-09-07T09:52:35;25.10;68.60
802;DHT22;383;48.766;9.270;2023-09-07T09:55:04;25.20;69.30
802;DHT22;383;48.766;9.270;2023-09-07T09:57:34;25.30;67.10
802;DHT22;383;48.766;9.270;2023-09-07T10:00:03;25.40;67.20
802;DHT22;383;48.766;9.270;2023-09-07T10:02:46;25.40;67.80
802;DHT22;383;48.766;9.270;2023-09-07T10:05:15;25.50;67.20
802;DHT22;383;48.766;9.270;2023-09-07T10:07:43;25.70;67.20
802;DHT22;383;48.766;9.270;2023-09-07T10:10:12;25.80;67.40
802;DHT22;383;48.766;9.270;2023-09-07T10:12:43;25.90;65.80
802;DHT22;383;48.766;9.270;2023-09-07T10:15:21;25.90;66.20
802;DHT22;383;48.766;9.270;2023-09-07T10:17:48;26.00;66.70
802;DHT22;383;48.766;9.270;2023-09-07T10:20:16;26.10;66.60
802;DHT22;383;48.766;9.270;2023-09-07T10:22:43;26.30;65.80
802;DHT22;383;48.766;9.270;2023-09-07T10:25:20;26.40;65.20
802;DHT22;383;48.766;9.270;2023-09-07T10:27:49;26.40;65.40
802;DHT22;383;48.766;9.270;2023-09-07T10:30:15;26.40;65.40
802;DHT22;383;48.766;9.270;2023-09-07T10:32:45;26.50;65.10
802;DHT22;383;48.766;9.270;2023-09-07T10:35:13;26.50;65.50
802;DHT22;383;48.766;9.270;2023-09-07T10:37:41;26.60;65.20
802;DHT22;383;48.766;9.270;2023-09-07T10:40:10;26.60;64.90
802;DHT22;383;48.766;9.270;2023-09-07T10:42:37;26.60;65.20
802;DHT22;383;48.766;9.270;2023-09-07T10:45:13;26.70;65.20
802;DHT22;383;48.766;9.270;2023-09-07T10:47:41;26.60;65.60
802;DHT22;383;48.766;9.270;2023-09-07T10:50:10;26.70;65.40
802;DHT22;383;48.766;9.270;2023-09-07T10:52:38;26.70;64.20
802;DHT22;383;48.766;9.270;2023-09-07T10:55:06;26.80;66.30
802;DHT22;383;48.766;9.270;2023-09-07T10:57:41;27.00;65.90
802;DHT22;383;48.766;9.270;2023-09-07T11:00:09;26.90;64.70
802;DHT22;383;48.766;9.270;2023-09-07T11:02:38;26.90;65.00
802;DHT22;383;48.766;9.270;2023-09-07T11:05:05;27.00;65.80
802;DHT22;383;48.766;9.270;2023-09-07T11:07:32;27.20;65.40
802;DHT22;383;48.766;9.270;2023-09-07T11:09:59;27.30;65.40
802;DHT22;383;48.766;9.270;2023-09-07T11:12:29;27.40;64.30
802;DHT22;383;48.766;9.270;2023-09-07T11:14:56;27.50;64.90
802;DHT22;383;48.766;9.270;2023-09-07T11:17:26;27.60;63.70
802;DHT22;383;48.766;9.270;2023-09-07T11:19:54;27.70;63.50
802;DHT22;383;48.766;9.270;2023-09-07T11:22:21;27.80;64.60
802;DHT22;383;48.766;9.270;2023-09-07T11:24:48;27.80;65.10
802;DHT22;383;48.766;9.270;2023-09-07T11:27:17;27.80;64.30
802;DHT22;383;48.766;9.270;2023-09-07T11:29:51;27.90;65.90
802;DHT22;383;48.766;9.270;2023-09-07T11:32:17;28.00;62.90
802;DHT22;383;48.766;9.270;2023-09-07T11:34:47;28.00;62.20
802;DHT22;383;48.766;9.270;2023-09-07T11:37:16;28.10;61.80
802;DHT22;383;48.766;9.270;2023-09-07T11:39:43;28.20;61.70
802;DHT22;383;48.766;9.270;2023-09-07T11:42:10;28.20;62.10
802;DHT22;383;48.766;9.270;2023-09-07T11:44:36;28.30;62.30
802;DHT22;383;48.766;9.270;2023-09-07T11:47:03;28.40;60.10
802;DHT22;383;48.766;9.270;2023-09-07T11:49:30;28.40;60.80
802;DHT22;383;48.766;9.270;2023-09-07T11:51:57;28.50;60.10
802;DHT22;383;48.766;9.270;2023-09-07T11:54:25;28.50;60.60
802;DHT22;383;48.766;9.270;2023-09-07T11:56:52;28.60;60.90
802;DHT22;383;48.766;9.270;2023-09-07T11:59:19;28.60;59.30
802;DHT22;383;48.766;9.270;2023-09-07T12:01:46;28.60;59.20
802;DHT22;383;48.766;9.270;2023-09-07T12:04:12;28.50;59.70
802;DHT22;383;48.766;9.270;2023-09-07T12:06:39;28.60;60.10
802;DHT22;383;48.766;9.270;2023-09-07T12:09:06;28.60;59.00
802;DHT22;383;48.766;9.270;2023-09-07T12:11:36;28.60;59.80
802;DHT22;383;48.766;9.270;2023-09-07T12:14:02;28.70;59.80
802;DHT22;383;48.766;9.270;2023-09-07T12:16:30;28.90;59.80
802;DHT22;383;48.766;9.270;2023-09-07T12:18:57;29.00;58.30
802;DHT22;383;48.766;9.270;2023-09-07T12:21:24;29.00;58.70
802;DHT22;383;48.766;9.270;2023-09-07T12:23:52;29.00;57.10
802;DHT22;383;48.766;9.270;2023-09-07T12:26:18;29.10;58.50
802;DHT22;383;48.766;9.270;2023-09-07T12:28:47;29.10;57.60
802;DHT22;383;48.766;9.270;2023-09-07T12:31:14;29.20;55.60
802;DHT22;383;48.766;9.270;2023-09-07T12:33:42;29.00;58.30
802;DHT22;383;48.766;9.270;2023-09-07T12:36:09;29.10;58.70
802;DHT22;383;48.766;9.270;2023-09-07T12:38:37;29.10;57.00
802;DHT22;383;48.766;9.270;2023-09-07T12:41:04;29.20;57.20
802;DHT22;383;48.766;9.270;2023-09-07T12:43:30;29.30;56.40
802;DHT22;383;48.766;9.270;2023-09-07T12:45:59;29.30;56.10
802;DHT22;383;48.766;9.270;2023-09-07T12:48:25;29.30;55.60
802;DHT22;383;48.766;9.270;2023-09-07T12:50:53;29.40;57.00
802;DHT22;383;48.766;9.270;2023-09-07T12:53:19;29.40;55.70
802;DHT22;383;48.766;9.270;2023-09-07T12:55:50;29.40;56.20
802;DHT22;383;48.766;9.270;2023-09-07T12:58:17;29.50;56.00
802;DHT22;383;48.766;9.270;2023-09-07T13:00:44;29.60;55.70
802;DHT22;383;48.766;9.270;2023-09-07T13:03:12;29.80;55.90
802;DHT22;383;48.766;9.270;2023-09-07T13:05:38;29.90;53.60
802;DHT22;383;48.766;9.270;2023-09-07T13:08:05;29.90;54.30
802;DHT22;383;48.766;9.270;2023-09-07T13:10:32;30.00;54.60
802;DHT22;383;48.766;9.270;2023-09-07T13:12:58;29.90;53.60
802;DHT22;383;48.766;9.270;2023-09-07T13:15:25;29.90;53.30
802;DHT22;383;48.766;9.270;2023-09-07T13:17:52;30.00;53.60
802;DHT22;383;48.766;9.270;2023-09-07T13:20:20;30.00;54.10
802;DHT22;383;48.766;9.270;2023-09-07T13:22:47;30.00;52.80
802;DHT22;383;48.766;9.270;2023-09-07T13:25:14;30.10;54.10
802;DHT22;383;48.766;9.270;2023-09-07T13:27:40;30.30;54.00
802;DHT22;383;48.766;9.270;2023-09-07T13:30:07;30.30;53.80
802;DHT22;383;48.766;9.270;2023-09-07T13:32:34;30.40;53.10
802;DHT22;383;48.766;9.270;2023-09-07T13:35:01;30.50;52.60
802;DHT22;383;48.766;9.270;2023-09-07T13:37:29;30.50;52.90
802;DHT22;383;48.766;9.270;2023-09-07T13:39:56;30.60;53.00
802;DHT22;383;48.766;9.270;2023-09-07T13:42:24;30.60;52.00
802;DHT22;383;48.766;9.270;2023-09-07T13:44:52;30.60;51.60
802;DHT22;383;48.766;9.270;2023-09-07T13:47:19;30.70;51.60
802;DHT22;383;48.766;9.270;2023-09-07T13:49:45;30.70;52.10
802;DHT22;383;48.766;9.270;2023-09-07T13:52:12;30.80;53.00
802;DHT22;383;48.766;9.270;2023-09-07T13:54:41;30.90;52.60
802;DHT22;383;48.766;9.270;2023-09-07T13:57:08;31.00;51.20
802;DHT22;383;48.766;9.270;2023-09-07T13:59:35;31.10;52.10
802;DHT22;383;48.766;9.270;2023-09-07T14:02:01;31.30;51.30
802;DHT22;383;48.766;9.270;2023-09-07T14:04:28;31.30;49.80
802;DHT22;383;48.766;9.270;2023-09-07T14:06:56;31.20;50.20
802;DHT22;383;48.766;9.270;2023-09-07T14:09:23;31.30;50.40
802;DHT22;383;48.766;9.270;2023-09-07T14:11:51;31.30;50.90
802;DHT22;383;48.766;9.270;2023-09-07T14:14:17;31.30;50.50
802;DHT22;383;48.766;9.270;2023-09-07T14:16:44;31.40;50.70
802;DHT22;383;48.766;9.270;2023-09-07T14:19:11;31.40;51.60
802;DHT22;383;48.766;9.270;2023-09-07T14:21:38;31.50;50.90
802;DHT22;383;48.766;9.270;2023-09-07T14:24:05;31.50;51.60
802;DHT22;383;48.766;9.270;2023-09-07T14:26:31;31.50;50.80
802;DHT22;383;48.766;9.270;2023-09-07T14:29:02;31.40;51.40
802;DHT22;383;48.766;9.270;2023-09-07T14:31:30;31.50;50.90
802;DHT22;383;48.766;9.270;2023-09-07T14:33:57;31.60;50.40
802;DHT22;383;48.766;9.270;2023-09-07T14:36:23;31.60;50.80
802;DHT22;383;48.766;9.270;2023-09-07T14:38:50;31.60;50.40
802;DHT22;383;48.766;9.270;2023-09-07T14:41:17;31.60;50.40
802;DHT22;383;48.766;9.270;2023-09-07T14:43:45;31.60;51.30
802;DHT22;383;48.766;9.270;2023-09-07T14:46:13;31.50;50.40
802;DHT22;383;48.766;9.270;2023-09-07T14:48:40;31.50;51.50
802;DHT22;383;48.766;9.270;2023-09-07T14:51:07;31.50;50.40
802;DHT22;383;48.766;9.270;2023-09-07T14:53:34;31.40;49.90
802;DHT22;383;48.766;9.270;2023-09-07T14:56:01;31.40;50.40
802;DHT22;383;48.766;9.270;2023-09-07T14:58:28;31.40;51.40
802;DHT22;383;48.766;9.270;2023-09-07T15:00:55;31.30;50.30
802;DHT22;383;48.766;9.270;2023-09-07T15:03:23;31.20;50.70
802;DHT22;383;48.766;9.270;2023-09-07T15:05:51;31.00;51.00
802;DHT22;383;48.766;9.270;2023-09-07T15:08:17;31.00;52.10
802;DHT22;383;48.766;9.270;2023-09-07T15:10:44;30.90;52.00
802;DHT22;383;48.766;9.270;2023-09-07T15:13:11;31.00;51.30
802;DHT22;383;48.766;9.270;2023-09-07T15:15:37;30.90;50.70
802;DHT22;383;48.766;9.270;2023-09-07T15:18:06;30.90;51.40
802;DHT22;383;48.766;9.270;2023-09-07T15:20:34;30.90;51.40
802;DHT22;383;48.766;9.270;2023-09-07T15:23:01;30.90;51.50
802;DHT22;383;48.766;9.270;2023-09-07T15:25:28;30.80;51.60
802;DHT22;383;48.766;9.270;2023-09-07T15:27:55;30.70;51.20
802;DHT22;383;48.766;9.270;2023-09-07T15:30:23;30.60;51.80
802;DHT22;383;48.766;9.270;2023-09-07T15:32:49;30.60;51.20
802;DHT22;383;48.766;9.270;2023-09-07T15:35:16;30.50;51.20
802;DHT22;383;48.766;9.270;2023-09-07T15:37:44;30.50;51.00
802;DHT22;383;48.766;9.270;2023-09-07T15:40:12;30.40;51.30
802;DHT22;383;48.766;9.270;2023-09-07T15:42:39;30.50;51.90
802;DHT22;383;48.766;9.270;2023-09-07T15:45:07;30.50;51.50
802;DHT22;383;48.766;9.270;2023-09-07T15:47:33;30.50;50.80
802;DHT22;383;48.766;9.270;2023-09-07T15:50:01;30.40;51.00
802;DHT22;383;48.766;9.270;2023-09-07T15:52:28;30.40;50.80
802;DHT22;383;48.766;9.270;2023-09-07T15:54:56;30.30;51.40
802;DHT22;383;48.766;9.270;2023-09-07T15:57:22;30.20;51.40
802;DHT22;383;48.766;9.270;2023-09-07T15:59:49;30.10;51.50
802;DHT22;383;48.766;9.270;2023-09-07T16:02:16;30.10;51.20
802;DHT22;383;48.766;9.270;2023-09-07T16:04:42;30.10;51.00
802;DHT22;383;48.766;9.270;2023-09-07T16:07:09;30.00;51.50
802;DHT22;383;48.766;9.270;2023-09-07T16:09:37;30.00;51.30
802;DHT22;383;48.766;9.270;2023-09-07T16:12:06;30.00;51.30
802;DHT22;383;48.766;9.270;2023-09-07T16:14:33;29.90;51.40
802;DHT22;383;48.766;9.270;2023-09-07T16:17:00;29.80;51.90
802;DHT22;383;48.766;9.270;2023-09-07T16:19:27;29.70;51.50
802;DHT22;383;48.766;9.270;2023-09-07T16:21:55;29.60;52.00
802;DHT22;383;48.766;9.270;2023-09-07T16:24:21;29.60;52.30
802;DHT22;383;48.766;9.270;2023-09-07T16:26:49;29.40;52.10
802;DHT22;383;48.766;9.270;2023-09-07T16:29:17;29.40;52.40
802;DHT22;383;48.766;9.270;2023-09-07T16:31:43;29.30;52.00
802;DHT22;383;48.766;9.270;2023-09-07T16:34:10;29.30;51.90